map of AOL home
AOL - Airport
Location
City:  Paso de los Libres, Corrientes, Argentina
Name:Paso de los Libres Airport
ICAO:SARL
IATA:AOL

Details
Type:Airport (Aerodrome, Airfield)
Latitude:2941'22"S (-29.689424)
Longitude:5709'07"W (-57.152077)
Datum:WGS 1984
Elevation:230 ft (70 m)
Variation:12.85W (WMM2015v2 magnetic declination)
-0.17 annual change
Runways:1
Longest:7414 × 147 ft (2260 × 45 m), paved

Time
Time Zone:UTC-3
Local Time:

Weather
METAR:SARL 041400Z 09011KT 9999 FEW020 25/17 Q1021

Related Locations
Nearby:
Farthest:HSN: 12411 mi / 19974 km
Zhoushan (Chusan), 33, CN

Find:

   beyond  
but within

Other Information
Maps:
NOTAMs:
Links:
Sources:

  
  • flag of Argentina
  

Sectional Chart

Flight Planning
at skyvector.com

Satellite Image

Google Maps Satellite view

 

Copyright © 2004-2019 Karl L. Swartz. All rights reserved.
The Great Circle Mapper name and logo are trademarks of the Great Circle Mapper.
All other trademarks mentioned herein belong to their respective owners.
Please see credits for attibutions and further copyright information.

  Follow gcmap on Facebook Follow gcmap on Twitter GCmap on LinkedIn

hCard Microformat

Geo Microformat